Terminal Aerodrome Forecast
Issued by NWS

Home | Current Version | Previous Version | Text Only | Print | Product List | Glossary On
Versions: 1 2 3 4 5 6 7 8 9 10 11 12 13 14 15
201
FTPQ31 PGUM 221208 RRA
TAFKMJ
TAF
PKMJ 221208Z 2212/2312 14008KT P6SM VCSH FEW018 SCT050 BKN140=

USA.gov is the U.S. government's official web portal to all federal, state and local government web resources and services.